Date,TemperatureHighF,TemperatureAvgF,TemperatureLowF,DewpointHighF,DewpointAvgF,DewpointLowF,HumidityHigh,HumidityAvg,HumidityLow,PressureMaxIn,PressureMinIn,WindSpeedMaxMPH,WindSpeedAvgMPH,GustSpeedMaxMPH,PrecipitationSumIn
2013-1-1,25.7,18.7,6.4,19.8,8.5,-3.8,82,65,50,29.83,29.57,15,3,15,0.00
2013-1-2,16.5,6.8,-0.9,3.7,-4.0,-11.5,69,61,51,30.00,29.80,12,2,12,0.00
2013-1-3,16.0,7.2,-1.1,3.0,-3.6,-11.3,66,61,54,30.06,29.90,5,0,5,0.00
2013-1-4,26.6,17.8,6.3,20.4,10.0,-1.9,77,71,62,29.90,29.67,2,0,2,0.00
2013-1-5,28.0,23.1,14.7,21.1,12.7,4.9,78,65,52,30.25,29.69,22,2,22,0.00
2013-1-6,25.7,20.0,13.5,19.0,12.6,4.5,79,73,65,30.21,29.88,4,0,4,0.00
2013-1-7,23.2,17.7,14.0,17.6,10.5,6.9,81,73,66,30.38,29.93,11,1,11,0.00
2013-1-8,31.3,24.6,13.5,21.8,17.2,5.3,84,73,64,30.34,30.16,6,0,6,0.00
2013-1-9,34.0,28.6,23.0,27.2,22.4,17.4,83,77,70,30.38,29.83,9,0,9,0.00
2013-1-10,37.8,32.7,25.9,26.9,22.7,16.8,82,67,57,30.50,29.85,27,6,27,0.08
2013-1-11,34.3,27.9,21.4,23.8,18.6,14.1,75,68,58,30.50,30.23,3,0,3,0.00
2013-1-12,38.5,34.3,30.7,33.8,30.0,23.8,88,84,75,30.23,30.08,4,0,4,0.10
2013-1-13,39.6,37.1,34.7,35.6,33.5,31.5,88,87,84,30.13,29.92,5,0,5,0.00
2013-1-14,48.4,39.2,32.0,45.0,33.2,22.2,89,80,58,30.19,29.81,19,2,19,0.02
2013-1-15,36.5,31.2,26.8,24.3,20.9,17.3,73,65,58,30.30,30.17,7,0,6,0.00
2013-1-16,28.0,27.1,26.1,23.8,21.2,17.3,85,78,68,30.25,29.75,2,0,2,0.00
2013-1-17,33.8,22.5,10.9,28.3,15.4,-1.4,86,74,56,30.11,29.72,17,1,17,0.02
2013-1-18,11.3,7.4,2.3,-1.0,-4.0,-6.8,66,59,50,30.36,30.08,15,1,15,0.00
2013-1-19,32.9,23.5,7.3,21.7,14.3,-2.6,78,68,62,30.32,29.85,2,0,2,0.02
2013-1-20,40.3,31.8,18.1,30.8,22.4,5.8,84,69,54,29.85,29.41,14,1,14,0.14
2013-1-21,20.5,15.2,7.9,6.2,1.5,-2.8,64,54,46,30.03,29.82,10,1,10,0.00
2013-1-22,12.7,8.4,2.7,0.8,-3.1,-11.0,67,59,52,30.00,29.75,12,1,12,0.00
2013-1-23,2.7,-1.7,-5.6,-10.8,-15.3,-19.1,57,52,47,30.05,29.98,13,2,13,0.00
2013-1-24,8.6,-0.1,-7.1,-7.5,-13.7,-19.4,59,52,44,30.06,29.88,14,3,14,0.00
2013-1-25,15.8,7.2,-1.1,-0.2,-5.1,-13.1,64,56,48,30.14,30.03,12,1,12,0.00
2013-1-26,18.0,10.4,5.0,-0.3,-3.9,-7.8,62,52,42,30.08,29.93,13,1,13,0.00
2013-1-27,18.3,11.1,5.9,1.7,-3.0,-6.5,60,52,45,30.38,30.08,15,2,15,0.00
2013-1-28,27.5,17.1,6.3,13.2,3.6,-5.0,77,56,39,30.40,30.06,4,0,4,0.00
2013-1-29,32.2,23.7,14.0,24.5,17.2,8.7,81,76,65,30.19,30.05,4,0,4,0.02
2013-1-30,46.0,37.9,29.7,43.3,34.6,24.5,90,88,81,30.13,29.42,9,0,9,0.08
2013-1-31,51.1,41.7,26.6,48.5,35.7,12.0,91,80,54,29.42,28.81,24,3,24,0.12
2013-2-1,26.2,20.2,11.3,12.5,6.1,-1.4,60,54,46,30.00,29.40,12,2,12,0.00
2013-2-2,25.2,16.8,9.9,9.7,3.8,-2.4,65,56,46,30.15,29.99,6,0,6,0.00
2013-2-3,25.9,20.8,15.4,14.2,10.3,8.2,75,64,54,30.03,29.67,6,0,6,0.00
2013-2-4,25.0,18.0,11.3,9.7,5.1,-5.8,71,57,45,29.83,29.61,10,2,10,0.00
2013-2-5,18.1,12.2,5.0,-0.5,-3.4,-7.5,59,49,40,30.00,29.82,6,0,6,0.00
2013-2-6,30.7,18.9,10.6,18.5,5.5,-6.2,64,56,41,30.23,29.88,7,1,7,0.00
2013-2-7,14.2,9.4,5.0,-5.7,-7.9,-10.2,55,45,34,30.56,30.23,7,1,7,0.00
2013-2-8,10.6,7.6,4.6,3.6,-2.7,-15.5,78,63,42,30.56,29.92,9,2,9,0.00
2013-2-9,14.9,10.2,6.1,10.8,5.9,1.4,84,82,78,30.08,29.72,27,8,27,0.00
2013-2-10,29.5,18.8,7.9,26.4,15.1,3.5,88,85,82,30.32,30.08,10,1,10,0.00
2013-2-11,30.2,21.9,14.7,27.6,18.5,10.6,90,86,84,30.32,29.67,2,0,2,0.00
2013-2-13,39.7,33.2,29.5,28.0,24.0,20.0,85,69,55,29.77,29.72,8,0,8,0.02
2013-2-14,35.8,29.6,26.1,20.9,18.7,16.4,72,64,51,29.98,29.69,7,0,7,0.00
2013-2-15,41.0,31.5,24.6,30.2,23.9,16.4,87,73,64,29.98,29.87,7,0,7,0.00
2013-2-16,34.0,30.4,23.5,29.2,24.9,12.8,86,80,63,29.93,29.77,8,1,8,0.04
2013-2-17,23.5,18.3,14.9,14.9,9.3,3.0,79,68,57,29.77,29.16,32,8,32,0.02
2013-2-18,25.0,16.4,9.1,8.0,2.0,-2.3,59,53,44,29.99,29.40,29,8,29,0.00
2013-2-19,38.7,27.4,13.5,33.6,13.3,-2.1,86,56,37,30.06,29.57,10,0,10,0.43
2013-2-20,38.7,31.9,23.4,35.1,23.5,13.3,87,71,59,29.59,29.38,15,2,15,0.16
2013-2-21,28.0,23.7,16.9,19.5,13.4,6.9,73,64,54,30.11,29.59,13,3,13,0.00
2013-2-22,34.3,27.9,23.0,19.8,17.6,15.2,73,65,54,30.36,30.11,10,1,10,0.00
2013-2-23,35.6,28.5,21.9,27.5,22.6,15.6,85,78,71,30.34,30.00,7,0,7,0.00
2013-2-24,29.1,27.4,25.2,25.2,23.5,6.7,86,85,83,30.00,29.77,0,0,0,0.00
2013-2-25,33.3,28.7,23.0,27.8,23.1,10.6,85,79,72,30.23,29.88,4,0,4,0.04
2013-2-26,42.8,33.0,27.7,29.3,24.9,20.5,82,72,58,30.34,30.22,6,0,6,0.16
2013-2-27,37.0,30.3,25.5,28.6,24.1,19.6,86,78,65,30.25,29.69,12,1,12,0.00
2013-2-28,38.5,33.0,28.6,35.3,29.8,24.9,89,88,86,29.71,29.54,10,1,10,0.48
2013-3-1,34.2,30.0,28.0,29.1,26.0,24.7,88,85,78,29.65,29.51,10,0,10,0.04
2013-3-2,39.4,31.9,28.0,29.5,27.1,24.7,88,82,67,29.62,29.57,10,1,10,0.04
2013-3-3,42.1,34.4,30.7,34.2,29.0,-2.6,89,81,72,29.59,29.49,7,1,7,0.10
2013-3-4,33.3,30.5,28.6,26.4,24.3,22.0,86,78,68,29.67,29.47,12,4,12,0.02
2013-3-5,40.5,34.4,29.5,32.5,29.0,25.8,89,81,69,30.11,29.67,12,4,12,0.06
2013-3-6,37.6,32.5,29.5,29.5,26.2,21.9,87,77,67,30.26,30.11,12,3,12,0.02
2013-3-7,34.0,30.5,27.9,23.3,21.1,20.2,74,68,60,30.22,30.08,16,5,16,0.00
2013-3-8,41.9,33.2,26.6,22.6,20.2,18.5,72,60,43,30.19,30.05,21,7,21,0.00
2013-3-9,40.8,32.5,26.4,24.1,20.7,17.4,71,62,50,30.37,30.19,15,2,15,0.00
2013-3-10,39.6,30.8,22.5,26.8,22.5,2.7,81,72,58,30.40,30.28,10,0,10,0.00
2013-3-11,45.1,36.8,31.3,33.3,29.9,25.5,85,76,62,30.29,30.11,13,1,13,0.00
2013-3-12,46.2,41.2,36.7,41.8,37.5,25.6,90,86,48,30.14,29.72,15,3,15,0.49
2013-3-13,47.3,40.7,30.9,42.0,34.2,21.6,90,78,62,29.73,29.64,13,1,13,0.02
2013-3-14,41.0,30.4,19.2,26.6,20.0,6.2,82,66,54,29.73,29.59,13,2,13,0.00
2013-3-15,32.9,22.8,13.5,15.4,9.1,2.5,67,56,43,29.77,29.57,13,1,13,0.00
2013-3-16,34.0,26.1,19.4,17.7,12.8,7.1,78,58,42,29.88,29.59,10,1,10,0.00
2013-3-17,28.4,20.2,14.4,10.7,4.5,-3.1,69,51,38,30.28,29.88,19,3,19,0.00
2013-3-18,33.1,21.6,10.0,15.7,4.9,-2.9,63,49,34,30.40,30.25,8,0,8,0.00
2013-3-19,31.1,24.8,19.9,23.6,17.9,0.5,83,75,41,30.26,29.67,5,0,5,0.00
2013-3-20,36.7,25.8,17.1,26.6,18.7,12.5,84,75,60,29.69,29.56,0,0,0,0.08
2013-3-21,35.2,26.4,17.1,20.2,16.9,2.8,81,68,49,29.74,29.59,7,0,7,0.04
2013-3-22,39.4,27.8,20.8,21.0,15.3,11.3,74,60,45,29.62,29.55,9,1,9,0.04
2013-3-23,38.7,29.1,20.5,22.5,17.8,4.4,73,63,49,29.62,29.44,21,4,21,0.04
2013-3-24,44.2,34.8,28.6,25.6,21.8,19.2,70,60,46,29.77,29.59,14,2,14,0.02
2013-3-25,43.9,34.4,26.2,29.4,23.7,19.3,80,65,52,29.77,29.57,7,1,7,0.00
2013-3-26,44.6,35.7,27.9,25.3,22.4,19.3,71,59,45,29.71,29.55,9,2,9,0.00
2013-3-27,43.5,35.5,29.3,33.2,27.1,5.3,86,72,34,29.85,29.67,8,1,8,0.08
2013-3-28,47.7,38.8,31.3,34.8,29.6,26.9,87,71,49,29.95,29.85,7,1,7,0.00
2013-3-29,52.5,41.9,34.7,34.8,29.5,24.9,77,62,46,29.99,29.91,9,1,9,0.00
2013-3-30,48.7,39.1,30.4,29.7,22.6,14.2,80,54,33,30.06,29.95,7,0,7,0.00
2013-3-31,50.7,38.9,28.6,31.1,22.0,14.6,71,52,35,30.10,29.84,8,1,8,0.00
2013-4-1,49.3,38.8,28.9,39.5,32.7,20.0,87,79,68,29.84,29.47,13,1,13,0.40
2013-4-2,36.5,29.0,23.0,20.2,15.1,-1.8,71,56,43,29.77,29.66,9,1,9,0.00
2013-4-3,39.2,30.8,24.3,17.5,14.6,-0.1,66,52,39,30.00,29.75,26,3,26,0.00
2013-4-4,46.2,34.4,25.0,24.9,15.8,9.8,72,48,31,30.17,29.93,12,1,12,0.00
2013-4-5,54.7,38.7,32.0,30.9,23.0,8.0,72,55,34,29.93,29.62,15,2,15,0.00
2013-4-6,34.9,29.0,22.8,18.5,8.1,-7.9,53,42,31,30.32,29.79,22,5,22,0.00
2013-4-7,47.5,35.4,24.1,32.8,20.3,6.7,77,54,41,30.32,29.92,21,2,21,0.00
2013-4-8,52.9,44.0,34.3,34.4,31.4,27.3,84,63,45,30.13,29.87,20,1,20,0.00
2013-4-9,43.0,39.5,37.4,38.2,34.0,27.2,87,81,64,30.11,29.90,7,0,7,0.16
2013-4-10,54.9,43.9,37.0,44.2,36.9,16.6,88,77,58,29.97,29.88,9,0,9,0.10
2013-4-11,50.2,41.5,33.3,36.8,24.6,9.2,85,54,32,30.18,29.85,10,1,10,0.02
2013-4-12,36.7,32.3,30.4,27.0,19.8,12.2,85,62,43,30.25,29.88,9,0,9,0.08
2013-4-13,43.9,36.0,29.5,35.1,30.3,12.3,87,80,68,29.92,29.79,6,0,6,0.18
2013-4-14,48.4,40.6,35.6,39.4,33.7,11.4,86,77,62,30.16,29.88,14,0,14,0.04
2013-4-15,54.0,40.7,30.2,36.6,31.0,17.0,82,69,49,30.40,30.16,13,1,13,0.02
2013-4-16,54.1,45.1,37.0,40.8,36.5,16.9,86,73,53,30.42,29.92,16,2,16,0.00
2013-4-17,54.9,47.3,38.8,42.4,30.7,14.5,86,55,35,30.34,29.93,22,3,22,0.00
2013-4-18,53.1,42.1,32.5,32.7,25.2,12.8,65,52,37,30.48,30.11,14,1,14,0.00
2013-4-19,67.3,54.4,44.6,54.9,46.1,25.6,84,74,63,30.11,29.67,22,2,22,0.00
2013-4-20,57.0,49.1,38.3,43.6,34.5,22.0,87,59,44,30.11,29.67,13,2,13,0.26
2013-4-21,45.5,38.7,30.4,23.0,19.6,6.7,63,47,34,30.68,30.11,14,2,14,0.04
2013-4-22,50.9,38.3,28.4,25.6,19.8,13.3,77,49,29,30.80,30.65,13,1,13,0.00
2013-4-23,51.1,37.6,27.1,36.2,30.0,17.0,83,75,56,30.65,30.19,12,0,12,0.00
2013-4-24,57.2,46.0,39.0,47.2,40.5,20.7,89,81,69,30.19,29.77,12,2,12,0.08
2013-4-25,57.2,48.7,41.5,46.1,35.0,23.9,88,62,38,30.29,29.75,19,2,19,0.02
2013-4-26,56.5,45.0,33.4,33.0,27.8,22.9,69,52,35,30.42,30.29,9,0,9,0.00
2013-4-27,61.3,46.1,35.1,37.9,32.6,27.8,80,61,38,30.41,30.28,10,0,10,0.00
2013-4-28,66.4,50.3,37.9,40.2,32.9,27.2,76,54,34,30.32,30.22,13,1,13,0.00
2013-4-29,64.8,50.7,38.5,42.3,36.5,29.1,77,60,37,30.26,30.19,13,2,13,0.00
2013-4-30,66.4,51.1,38.5,43.5,36.0,17.9,86,59,37,30.37,30.25,13,1,13,0.00
2013-5-1,70.0,53.2,38.8,40.2,32.5,25.6,66,47,32,30.44,30.36,14,0,14,0.00
2013-5-2,67.5,52.1,39.9,42.9,37.8,32.0,81,60,40,30.50,30.40,9,0,9,0.00
2013-5-3,62.8,53.2,38.5,43.5,39.0,30.6,76,59,47,30.55,30.34,8,0,8,0.00
2013-5-4,64.6,47.9,37.6,40.4,35.1,29.7,86,63,31,30.40,30.26,14,1,14,0.00
2013-5-5,63.7,46.1,34.0,40.6,34.5,19.3,83,66,42,30.34,30.23,13,1,13,0.00
2013-5-6,64.6,49.3,36.5,44.4,38.7,21.7,87,69,40,30.26,30.14,13,1,13,0.00
2013-5-7,71.6,55.1,43.2,52.5,45.3,38.4,86,72,44,30.17,30.06,16,1,16,0.00
2013-5-8,73.8,59.5,46.9,56.7,51.2,43.4,89,75,53,30.24,30.13,16,1,16,0.16
2013-5-9,62.6,55.7,51.8,56.3,51.5,48.5,89,86,79,30.13,29.90,6,0,6,0.81
2013-5-10,72.0,58.6,49.6,59.5,52.5,46.5,90,81,60,29.95,29.88,25,0,25,0.63
2013-5-11,63.3,55.1,50.2,57.6,51.2,46.5,90,87,81,29.93,29.67,12,0,12,0.34
2013-5-12,61.2,55.6,43.9,55.4,51.6,39.2,91,87,76,29.72,29.54,10,0,10,0.14
2013-5-13,58.5,47.5,36.1,39.2,34.9,31.4,87,64,44,30.00,29.71,6,0,6,0.00
2013-5-14,55.9,46.3,36.9,33.4,30.7,27.8,71,55,39,30.00,29.93,11,0,11,0.00
2013-5-15,61.9,48.5,34.5,43.1,34.8,28.4,86,62,36,30.00,29.65,13,1,10,0.16
2013-5-16,74.1,57.9,46.9,54.8,45.3,38.3,88,66,36,29.79,29.55,13,0,13,0.00
2013-5-17,59.7,52.0,45.0,44.1,37.5,33.6,75,59,42,30.19,29.77,57,1,13,0.00
2013-5-18,65.5,51.0,41.0,46.5,39.0,33.6,81,64,45,30.32,30.19,12,0,12,0.00
2013-5-19,67.1,52.0,42.1,49.4,43.3,37.2,85,73,51,30.37,30.22,21,0,21,0.02
2013-5-20,70.0,56.6,47.7,59.7,51.2,43.4,89,83,67,30.22,29.91,8,0,8,0.48
2013-5-21,55.9,51.2,46.9,51.8,47.5,43.7,89,87,86,30.10,29.97,7,0,7,0.75
2013-5-22,57.4,50.3,46.4,51.2,46.4,43.3,90,86,79,30.03,29.92,6,0,6,0.34
2013-5-23,67.3,55.8,46.9,58.9,51.4,37.2,90,85,73,29.95,29.80,9,1,9,0.02
2013-5-24,65.1,57.2,45.7,60.6,53.9,28.9,91,89,44,29.85,29.65,15,2,15,0.88
2013-5-25,46.8,44.1,41.7,43.8,41.5,39.3,91,90,89,29.85,29.67,20,3,20,0.93
2013-5-26,53.6,46.1,41.2,47.0,41.2,35.8,92,84,67,29.95,29.62,36,2,36,0.18
2013-5-27,63.3,51.0,38.3,43.6,37.1,33.7,85,62,37,30.15,29.93,14,2,14,0.00
2013-5-28,70.7,55.1,41.5,47.2,40.0,35.3,81,59,38,30.22,30.15,12,0,12,0.00
2013-5-29,55.6,51.3,45.5,51.5,46.5,37.3,89,84,64,30.21,29.98,6,0,6,0.20
2013-5-30,80.6,66.4,51.6,65.2,56.2,48.5,90,72,49,30.03,29.95,9,0,9,0.00
2013-5-31,88.3,74.3,21.4,68.1,61.3,13.1,79,65,49,30.05,29.87,6,0,6,0.00
2013-6-1,90.7,75.8,64.6,70.0,62.3,56.8,79,64,43,29.92,29.80,12,0,12,0.00
2013-6-2,83.5,72.2,63.1,70.0,63.3,57.8,88,74,60,29.81,29.65,26,1,26,0.06
2013-6-3,75.4,66.2,57.9,65.2,60.1,40.5,90,81,66,29.81,29.69,8,0,8,0.00
2013-6-4,63.5,57.1,50.4,48.9,43.3,38.7,80,61,47,30.03,29.77,20,2,20,0.00
2013-6-5,69.3,57.7,46.8,44.4,41.2,37.8,77,56,33,30.16,30.03,8,0,8,0.00
2013-6-6,70.7,58.6,48.6,50.2,44.2,36.3,78,60,43,30.22,30.14,7,0,7,0.00
2013-6-7,63.7,55.1,50.0,49.6,47.1,45.1,88,76,53,30.16,29.95,5,0,5,0.51
2013-6-8,66.2,56.6,50.0,57.3,51.5,46.6,90,84,70,29.98,29.67,10,1,10,0.87
2013-6-9,74.5,63.0,54.1,60.8,54.6,32.3,88,75,59,30.15,29.97,7,0,7,0.00
2013-6-10,73.6,61.1,51.4,57.4,52.0,47.3,87,73,54,30.22,30.05,6,0,6,0.00
2013-6-11,55.4,54.0,52.3,51.3,50.2,49.2,90,87,83,30.05,29.55,6,0,6,0.89
2013-6-12,59.0,55.1,52.0,53.5,51.0,48.8,90,86,81,29.75,29.51,13,2,13,0.22
2013-6-13,70.0,59.7,51.4,53.8,50.5,47.9,90,73,50,29.79,29.72,8,1,8,0.00
2013-6-14,73.6,61.1,51.4,56.7,51.2,47.4,87,72,45,29.75,29.64,11,0,11,0.26
2013-6-15,75.4,62.2,51.3,49.1,45.1,41.6,84,55,37,29.88,29.73,13,2,13,0.00
2013-6-16,77.2,61.9,49.6,57.5,50.2,41.8,85,67,46,29.90,29.71,12,1,12,0.02
2013-6-17,78.6,63.0,54.0,61.2,56.2,50.3,90,80,53,29.85,29.71,12,0,12,0.77
2013-6-18,68.0,59.6,52.3,54.8,52.0,31.4,91,77,58,29.98,29.85,5,0,5,0.00
2013-6-19,69.8,60.2,49.3,50.0,45.5,28.2,87,61,39,30.14,29.93,10,1,10,0.00
2013-6-20,74.3,61.4,50.0,51.9,46.5,40.5,78,59,42,30.25,30.14,7,0,7,0.00
2013-6-21,77.9,64.9,52.9,57.1,52.9,35.1,87,67,45,30.22,30.15,14,0,14,0.00
2013-6-22,80.1,68.2,59.2,65.1,58.9,51.4,83,72,58,30.19,30.10,5,0,5,0.00
2013-6-23,79.3,69.0,63.7,69.6,63.4,59.5,90,83,71,30.14,29.95,8,0,8,0.59
2013-6-24,85.5,74.8,63.9,70.0,65.7,60.9,91,75,57,29.95,29.81,10,1,10,0.00
2013-6-25,88.7,74.6,65.3,71.9,65.1,59.7,88,73,57,29.85,29.69,6,0,6,0.34
2013-6-26,77.2,67.5,59.2,68.1,62.7,55.9,90,85,72,29.88,29.69,5,0,5,1.99
2013-6-27,70.0,60.5,56.1,62.6,56.4,35.6,90,87,44,29.88,29.83,7,0,7,0.02
2013-6-28,63.0,58.9,55.8,60.0,56.1,37.0,92,90,48,29.85,29.56,7,0,7,1.36
2013-6-29,73.4,65.5,60.4,67.9,62.1,40.9,92,89,82,29.69,29.56,10,0,10,0.02
2013-6-30,81.7,69.4,59.9,70.5,64.0,57.3,92,84,66,29.93,29.69,11,0,11,0.67
2013-7-1,74.8,68.5,62.4,68.8,64.6,47.9,91,88,80,30.11,29.92,2,0,2,0.04
2013-7-2,68.2,59.1,55.6,65.1,56.0,46.4,91,89,48,30.23,30.08,5,0,5,0.26
2013-7-3,77.7,65.4,56.5,69.8,61.0,53.9,91,86,76,30.19,30.08,8,0,8,0.18
2013-7-4,86.0,72.2,66.4,73.9,67.3,63.7,92,85,65,30.16,30.03,8,0,8,0.08
2013-7-5,86.4,75.6,66.7,73.5,68.8,64.0,92,80,57,30.11,29.99,7,0,7,0.02
2013-7-6,87.1,76.1,67.3,70.5,66.9,59.6,91,75,57,30.03,29.92,57,0,12,0.06
2013-7-7,83.8,74.0,65.3,68.3,64.0,58.8,82,72,55,29.97,29.90,5,0,5,0.00
2013-7-8,71.6,67.3,58.5,65.1,61.8,42.2,90,83,71,30.08,29.88,6,0,6,0.26
2013-7-9,77.2,67.3,62.1,66.3,61.8,49.0,90,83,68,30.13,30.06,6,0,6,0.08
2013-7-10,70.9,64.4,60.1,63.5,59.9,56.7,91,86,76,30.08,29.77,8,0,8,0.06
2013-7-11,77.2,68.9,64.4,70.2,64.7,57.5,92,86,74,29.98,29.75,10,0,10,0.20
2013-7-12,74.8,66.1,58.6,59.1,55.6,52.1,82,70,55,30.22,29.98,6,0,6,0.00
2013-7-13,79.2,67.9,58.1,63.9,58.1,53.4,89,72,57,30.32,30.22,7,0,7,0.00
2013-7-14,84.9,74.0,61.0,69.7,64.1,54.4,87,72,56,30.28,30.17,6,0,6,0.00
2013-7-15,82.2,70.8,66.4,68.9,63.9,61.1,84,79,62,30.18,30.15,6,0,6,0.00
2013-7-16,87.4,78.8,69.3,71.1,66.8,61.9,79,67,53,30.16,30.08,8,0,8,0.00
2013-7-17,84.9,73.7,64.6,72.7,66.1,60.6,88,78,65,30.18,29.93,10,0,10,0.16
2013-7-18,84.2,73.2,66.7,71.4,65.6,60.8,91,78,61,30.01,29.93,9,0,9,0.04
2013-7-19,85.6,75.9,66.9,75.5,68.9,63.4,90,79,66,29.95,29.62,13,0,13,0.02
2013-7-20,85.8,74.2,66.4,72.7,66.3,22.0,86,77,61,29.79,29.59,14,0,14,0.02
2013-7-21,77.0,66.4,60.1,63.5,57.0,53.4,84,72,62,30.03,29.77,7,0,7,0.00
2013-7-22,72.7,64.1,58.1,63.7,57.0,52.3,88,78,65,30.06,29.93,6,0,6,0.00
2013-7-23,68.0,61.9,57.9,63.7,58.3,52.6,91,88,82,29.93,29.55,4,0,4,0.93
2013-7-24,78.8,66.1,55.0,69.6,60.1,48.5,92,82,65,29.99,29.57,10,0,10,0.26
2013-7-25,70.9,60.5,50.5,57.3,51.7,44.1,88,73,59,30.13,29.99,6,0,6,0.18
2013-7-26,67.1,61.6,58.6,61.6,57.7,54.8,89,87,81,30.10,29.90,10,0,10,0.37
2013-7-27,79.7,68.0,59.5,65.7,60.1,56.0,89,77,60,30.03,29.91,5,0,5,0.00
2013-7-28,75.2,66.1,59.0,66.3,60.4,56.1,90,83,66,30.05,30.00,8,0,8,0.02
2013-7-29,75.2,66.5,60.4,67.1,61.9,57.2,90,85,74,30.06,29.99,6,0,6,0.08
2013-7-30,76.3,66.5,60.1,61.9,57.6,52.6,91,75,52,30.06,30.00,10,0,10,0.00
2013-7-31,77.4,66.0,57.4,60.6,55.9,51.4,82,71,53,30.11,30.01,6,0,6,0.00
2013-8-1,77.2,66.2,57.4,64.3,58.0,52.6,88,76,59,30.05,29.88,10,1,10,0.02
2013-8-2,72.5,63.6,59.0,65.6,59.6,0.8,90,87,77,29.88,29.75,7,0,7,0.75
2013-8-3,73.9,63.4,58.1,62.8,58.1,53.8,91,83,63,29.83,29.72,7,0,7,0.02
2013-8-4,75.4,62.2,54.7,59.1,55.0,49.3,88,78,55,29.83,29.73,14,0,14,0.04
2013-8-5,70.0,59.6,52.7,53.4,48.6,42.6,85,68,52,30.29,29.81,13,1,13,0.00
2013-8-6,73.8,61.3,51.4,56.1,49.9,43.4,80,67,51,30.42,30.28,4,0,4,0.00
2013-8-7,73.9,62.3,52.0,57.7,52.6,45.5,87,71,54,30.47,30.39,13,1,13,0.00
2013-8-8,71.1,63.3,58.6,65.3,59.1,54.5,90,86,81,30.39,30.28,6,0,6,0.06
2013-8-9,70.3,65.5,63.1,67.3,62.6,60.2,92,90,88,30.29,30.00,10,1,10,3.78
2013-8-10,74.3,65.7,56.5,63.7,57.9,41.4,92,78,48,30.25,30.00,10,1,10,0.00
2013-8-11,75.2,61.9,52.0,56.6,51.7,47.0,85,70,51,30.31,30.23,9,0,9,0.00
2013-8-12,76.1,64.6,54.9,59.2,55.1,50.8,88,72,53,30.26,30.16,1,0,1,0.00
2013-8-13,76.1,64.3,57.2,65.0,58.4,53.2,88,82,67,30.18,29.97,9,0,9,0.04
2013-8-14,73.9,64.7,55.4,62.3,55.7,45.6,89,74,54,30.13,29.88,16,2,16,0.02
2013-8-15,71.6,60.6,51.1,54.1,50.1,45.6,83,69,52,30.34,30.13,6,0,6,0.00
2013-8-16,74.1,62.5,53.8,58.8,52.9,49.2,87,72,50,30.44,30.32,6,0,6,0.00
2013-8-17,74.7,63.6,54.9,56.4,53.0,50.2,87,70,48,30.54,30.44,9,0,9,0.00
2013-8-18,76.1,63.8,54.1,62.3,55.5,49.4,87,75,58,30.54,30.30,0,0,0,0.00
2013-8-19,79.7,67.4,56.5,63.4,58.3,52.7,88,74,56,30.31,30.15,6,0,6,0.00
2013-8-20,80.8,69.9,62.1,65.1,59.9,55.8,81,71,56,30.34,30.22,5,0,5,0.00
2013-8-21,81.7,70.3,61.3,67.5,61.7,56.8,86,75,60,30.39,30.25,7,0,7,0.00
2013-8-22,81.7,70.9,61.9,67.3,62.5,58.0,88,76,59,30.26,30.03,6,0,6,0.00
2013-8-23,72.0,65.9,56.7,62.6,53.0,45.7,84,64,47,30.42,30.03,12,1,12,0.00
2013-8-24,71.8,60.7,50.5,50.2,46.9,44.9,82,62,41,30.57,30.41,11,0,11,0.00
2013-8-25,74.1,62.2,52.9,55.2,51.2,48.0,85,69,49,30.62,30.41,6,0,6,0.00
2013-8-26,75.6,64.9,58.1,64.5,59.0,53.0,88,82,68,30.41,30.13,4,0,4,0.02
2013-8-27,78.3,68.6,60.8,65.8,61.4,57.5,90,79,60,30.18,30.11,6,0,6,0.00
2013-8-28,79.9,68.3,61.0,67.1,61.7,57.4,90,80,62,30.28,30.13,8,0,8,0.63
2013-8-29,64.9,61.0,54.7,60.3,56.4,51.2,91,85,74,30.39,30.26,6,0,6,0.00
2013-8-30,75.6,64.4,54.5,66.2,58.6,51.2,90,82,69,30.29,30.03,0,0,0,0.00
2013-8-31,78.3,68.2,61.7,68.7,63.5,58.7,92,85,71,30.11,30.03,8,1,8,0.89
2013-9-1,77.9,70.3,66.4,68.0,65.1,62.7,92,84,69,30.19,30.03,7,0,7,0.10
2013-9-2,68.4,64.1,60.8,63.8,61.2,58.0,92,90,85,30.19,30.01,12,0,12,3.26
2013-9-3,76.3,67.8,62.2,68.5,63.7,59.1,92,87,75,30.05,29.95,7,0,7,0.00
2013-9-4,74.7,64.0,56.8,59.3,56.0,53.9,91,76,54,30.17,30.00,8,1,8,0.06
2013-9-5,62.6,55.7,47.3,55.6,47.7,39.4,89,75,52,30.40,30.11,8,1,8,0.39
2013-9-6,62.1,52.5,43.9,46.4,42.3,38.0,83,69,50,30.48,29.81,6,0,6,0.00
2013-9-7,73.9,59.3,48.9,57.8,51.3,44.0,86,76,54,30.06,29.80,7,0,7,0.00
2013-9-8,62.8,55.7,45.7,54.6,47.0,36.3,89,74,51,30.06,29.70,23,2,23,0.20
2013-9-9,64.2,52.1,41.7,48.9,42.8,35.7,86,71,52,30.20,30.06,6,0,6,0.00
2013-9-10,65.3,57.6,48.0,58.6,52.4,43.9,89,83,71,30.11,30.03,7,0,7,0.00
2013-9-11,84.7,70.0,59.9,75.1,64.8,56.6,91,84,72,30.06,29.90,10,0,10,0.04
2013-9-12,75.6,67.1,64.0,68.4,63.6,61.0,91,88,77,30.00,29.67,8,0,8,0.55
2013-9-13,66.2,62.1,55.4,63.4,60.4,54.5,98,94,88,29.73,29.62,11,0,11,1.44
2013-9-14,67.1,57.2,49.5,62.4,55.4,48.1,98,94,84,30.03,29.72,8,1,8,0.00
2013-9-15,64.9,54.2,45.3,58.8,51.6,44.2,97,91,78,30.14,29.99,6,0,6,0.00
2013-9-16,55.9,50.3,41.7,53.4,47.7,37.8,96,91,84,30.26,29.94,10,1,10,0.06
2013-9-17,60.1,48.4,36.9,51.4,43.8,35.0,94,85,70,30.40,30.26,7,0,7,0.00
2013-9-18,66.7,53.8,43.5,57.7,49.4,42.2,95,86,68,30.30,30.09,9,0,9,0.00
2013-9-19,70.0,57.0,46.6,62.3,53.3,45.2,96,88,75,30.14,30.01,5,0,5,0.00
2013-9-20,71.2,58.7,50.2,63.9,55.3,49.0,97,89,76,30.12,30.03,7,0,7,0.00
2013-9-21,66.2,58.7,51.3,61.9,56.9,50.2,97,94,86,30.04,29.77,10,2,10,0.00
2013-9-22,68.9,61.2,49.1,66.6,59.4,46.9,98,94,87,29.78,29.59,14,2,14,0.46
2013-9-23,55.9,48.2,42.3,49.5,44.5,39.8,94,87,77,29.93,29.75,13,2,13,0.00
2013-9-24,54.5,47.6,43.0,49.5,44.5,40.8,94,89,82,29.93,29.83,13,1,13,0.02
2013-9-25,60.3,51.4,43.3,52.8,47.4,41.7,94,87,76,29.99,29.86,12,1,12,0.22
2013-9-26,62.4,53.6,45.7,55.8,49.8,43.3,93,87,78,30.14,29.98,13,1,13,0.00
2013-9-27,66.2,57.6,52.0,60.2,53.8,49.7,93,87,77,30.26,30.14,6,0,6,0.00
2013-9-28,66.4,56.1,48.9,59.5,52.7,47.7,96,89,73,30.35,30.26,6,0,6,0.00
2013-9-29,64.4,52.7,44.2,57.0,49.6,43.0,96,90,75,30.27,30.14,8,0,8,0.00
2013-9-30,61.0,51.5,44.6,55.7,49.0,43.5,97,91,79,30.14,29.99,5,0,4,0.00
2013-10-1,69.1,55.4,43.5,60.2,51.8,42.7,97,88,70,29.99,29.83,7,0,7,0.00
2013-10-2,73.6,62.3,52.3,66.1,57.7,51.2,96,85,75,29.90,29.75,8,1,8,0.00
2013-10-3,68.7,59.4,52.0,58.0,52.2,47.6,88,77,65,30.06,29.90,7,0,7,0.00
2013-10-4,67.5,57.4,48.9,59.5,52.2,46.4,92,83,70,30.11,30.03,8,0,8,0.04
2013-10-5,62.2,54.2,48.4,54.2,48.7,45.2,91,82,73,30.17,30.08,5,0,5,0.00
2013-10-6,57.9,48.8,41.5,47.3,42.6,36.3,93,80,66,30.30,30.17,9,0,9,0.06
2013-10-7,64.6,55.9,46.9,63.1,54.3,45.0,95,94,93,30.22,29.80,18,2,18,0.42
2013-10-8,60.3,50.6,42.6,58.8,45.4,38.2,95,83,67,30.40,29.81,14,2,14,0.16
2013-10-9,57.4,46.5,38.5,47.5,41.5,36.1,92,83,68,30.50,30.35,5,0,5,0.00
2013-10-10,61.5,49.3,39.2,54.4,45.4,37.3,94,87,75,30.37,30.19,7,0,7,0.00
2013-10-11,67.6,54.1,43.5,57.3,49.5,41.9,94,85,65,30.20,30.14,4,0,4,0.00
2013-10-12,59.0,52.7,48.0,53.3,49.7,46.4,94,90,81,30.43,30.19,1,0,0,0.00
2013-10-13,59.0,51.3,46.4,52.5,47.8,44.2,93,88,78,30.48,30.38,0,0,0,0.00
2013-10-14,59.7,49.4,40.3,52.7,45.8,38.7,94,88,77,30.40,30.24,9,0,9,0.00
2013-10-15,64.8,53.7,46.2,57.2,50.2,44.6,95,88,75,30.30,30.20,7,0,7,0.00
2013-10-16,61.5,54.4,50.9,54.2,51.2,48.8,94,89,75,30.22,29.91,8,0,8,0.00
2013-10-17,65.1,56.2,51.1,58.4,53.0,49.1,94,89,78,29.91,29.73,5,0,5,0.00
2013-10-18,63.0,53.2,48.2,55.6,49.5,43.9,95,87,75,29.83,29.59,12,1,12,0.20
2013-10-19,48.7,44.1,40.5,45.9,40.8,37.5,92,88,84,29.93,29.75,6,0,6,0.00
2013-10-20,56.3,50.0,42.1,49.9,43.0,35.4,95,78,57,29.95,29.67,12,1,12,0.10
2013-10-21,56.1,46.2,35.8,44.7,40.2,33.0,92,80,64,30.08,29.94,5,0,5,0.00
2013-10-22,61.3,50.0,40.3,54.1,46.9,37.4,93,89,77,29.98,29.69,12,0,12,0.02
2013-10-23,51.4,42.9,35.8,42.3,37.8,32.5,92,83,69,29.77,29.59,12,0,12,0.00
2013-10-24,47.8,40.3,33.4,35.4,32.8,29.6,87,75,59,29.80,29.60,8,0,8,0.00
2013-10-25,48.7,38.6,31.5,37.1,31.9,26.6,89,77,64,30.07,29.80,8,0,8,0.00
2013-10-26,49.3,38.1,28.8,40.5,32.8,25.1,87,82,70,30.09,29.85,6,0,6,0.00
2013-10-27,52.5,42.7,34.7,43.4,37.0,29.8,92,81,66,29.99,29.77,10,0,10,0.12
2013-10-28,51.4,38.2,30.2,42.4,32.0,23.9,87,79,66,30.34,29.99,17,1,17,0.00
2013-10-29,41.4,32.5,25.3,29.3,24.9,21.7,87,74,56,30.44,30.34,5,0,5,0.00
2013-10-30,43.7,34.3,28.6,34.2,27.8,24.4,87,78,60,30.34,30.16,4,0,4,0.00
2013-10-31,53.8,41.0,30.9,52.2,37.8,26.8,95,88,80,30.24,29.76,10,0,10,0.16
2013-11-1,61.0,56.1,51.4,58.3,54.0,47.5,95,93,81,29.76,29.31,14,3,14,0.16
2013-11-2,58.1,50.4,39.4,49.5,44.7,35.8,91,81,70,29.80,29.55,9,0,9,0.02
2013-11-3,39.2,34.2,27.1,35.7,26.3,19.5,91,73,60,30.42,29.80,12,2,12,0.02
2013-11-4,35.8,29.3,24.1,23.0,20.4,17.9,77,69,58,30.70,30.42,9,0,9,0.00
2013-11-5,42.4,32.8,23.9,34.0,27.4,19.8,91,81,71,30.71,30.48,8,0,8,0.00
2013-11-6,49.6,41.1,31.5,44.4,37.9,29.3,93,89,79,30.48,29.94,12,1,12,0.00
2013-11-7,54.5,47.0,36.1,52.3,44.2,29.6,94,90,77,29.95,29.63,13,1,13,0.04
2013-11-8,42.4,36.1,31.1,33.0,28.7,21.0,83,75,59,29.95,29.75,13,2,13,0.00
2013-11-9,39.4,34.0,30.0,21.6,19.8,18.1,67,56,45,30.09,29.95,10,2,10,0.16
2013-11-10,41.2,34.6,29.5,35.4,29.3,21.4,85,81,64,30.07,29.70,5,0,5,0.04
2013-11-11,40.6,37.0,34.7,31.4,27.6,25.0,85,69,58,30.00,29.73,12,1,12,0.00
2013-11-12,37.6,29.9,24.6,28.2,17.5,11.9,69,60,52,30.08,29.81,16,3,16,0.00
2013-11-13,28.8,24.0,19.6,12.3,10.5,8.5,65,56,47,30.20,30.06,11,1,11,0.00
2013-11-14,42.4,32.3,24.1,26.1,19.7,11.0,72,60,50,30.08,29.96,8,0,8,0.00
2013-11-15,46.6,37.0,28.9,29.5,25.3,21.7,77,63,47,30.17,30.06,2,0,2,0.00
2013-11-16,46.9,39.8,32.4,32.9,27.8,23.9,83,63,48,30.34,30.25,1,0,1,0.00
2013-11-17,47.7,40.7,35.6,42.6,35.9,31.4,87,83,75,30.37,29.93,4,0,4,0.18
2013-11-18,56.3,50.4,43.2,51.9,43.4,29.8,89,78,60,29.93,29.47,18,2,18,0.30
2013-11-19,43.0,33.6,27.3,30.0,19.2,13.5,68,55,48,30.19,29.57,18,6,18,0.00
2013-11-20,34.0,28.0,24.3,15.4,11.0,9.0,59,49,37,30.61,29.96,18,2,18,0.00
2013-11-21,41.0,30.4,22.8,20.9,15.4,10.5,67,54,40,30.61,30.32,6,0,6,0.00
2013-11-22,37.6,32.3,27.9,29.7,23.2,13.8,84,70,53,30.32,29.75,0,0,0,0.10
2013-11-23,34.3,30.4,24.3,29.2,19.8,12.9,86,65,48,29.78,29.65,16,3,16,0.02
2013-11-24,25.0,18.6,14.5,14.2,3.2,-0.9,63,50,42,29.95,29.65,31,9,31,0.00
2013-11-25,25.2,18.1,12.2,8.7,1.1,-2.8,54,47,40,30.29,29.95,17,3,17,0.00
2013-11-26,32.5,28.1,24.1,24.2,19.4,8.8,83,70,49,30.29,30.16,0,0,0,0.02
2013-11-27,54.3,43.2,28.6,51.1,39.6,13.1,89,87,83,30.16,29.16,18,4,18,1.02
2013-11-28,35.2,25.1,16.3,31.5,14.5,5.7,86,64,49,30.35,29.28,14,3,14,0.00
2013-11-29,22.1,17.5,13.5,6.9,5.4,4.1,67,59,46,30.71,30.34,12,1,12,0.00
2013-11-30,24.3,18.4,10.6,15.9,8.4,3.6,74,65,51,30.78,30.40,6,0,6,0.00
2013-12-1,31.1,28.6,24.3,26.7,23.0,15.9,86,79,70,30.40,30.08,0,0,0,0.04
2013-12-2,31.6,30.3,28.9,27.9,26.8,25.0,88,86,85,30.08,29.93,0,0,0,0.02
2013-12-3,38.5,32.6,28.6,34.4,29.0,24.1,88,86,83,29.93,29.85,9,0,9,0.20
2013-12-4,38.3,30.0,25.7,27.6,23.0,20.0,83,75,64,30.22,29.86,9,1,9,0.02
2013-12-5,36.0,29.4,24.1,32.5,24.9,19.7,87,83,80,30.26,29.86,4,0,4,0.08
2013-12-6,39.7,36.0,32.9,35.3,30.3,21.3,88,80,62,30.08,29.85,10,1,10,0.63
2013-12-7,32.9,28.2,19.9,22.2,14.5,6.7,65,56,49,30.40,30.06,14,2,14,0.00
2013-12-8,25.5,21.0,18.7,9.7,7.2,4.6,64,55,46,30.56,30.38,10,1,10,0.00
2013-12-9,23.7,20.7,18.7,16.8,12.4,7.2,81,70,58,30.52,29.81,9,0,9,0.00
2013-12-10,32.0,23.6,17.2,25.9,17.1,8.6,83,76,67,29.88,29.72,12,0,12,0.00
2013-12-11,26.8,18.6,12.4,14.9,9.7,5.1,74,68,58,30.09,29.88,7,0,7,0.00
2013-12-12,14.7,10.4,7.5,6.1,-2.5,-6.5,69,56,47,30.22,29.95,14,1,14,0.00
2013-12-13,20.7,9.9,0.9,7.3,-2.0,-11.0,73,58,46,30.38,29.85,16,2,16,0.00
2013-12-14,9.9,3.9,-3.1,-2.0,-9.1,-13.2,66,55,43,30.60,30.37,9,0,9,0.00
2013-12-15,14.5,9.2,3.9,8.4,2.7,-2.5,77,74,66,30.38,29.44,20,4,20,0.02
2013-12-16,18.5,10.0,-0.8,8.1,0.2,-12.2,80,65,48,30.17,29.63,13,2,13,0.00
2013-12-17,10.6,3.1,-4.7,0.7,-7.0,-14.1,75,62,53,30.30,30.04,5,0,5,0.00
2013-12-18,24.8,16.2,6.8,16.7,9.6,0.6,79,75,70,30.04,29.83,0,0,0,0.00
2013-12-19,30.7,24.8,18.1,22.1,18.0,11.8,80,75,69,30.07,29.90,1,0,1,0.00
2013-12-20,34.5,29.7,26.6,27.1,23.8,19.7,84,78,74,30.11,29.90,5,0,5,0.04
2013-12-21,28.8,25.8,21.4,24.5,21.4,17.0,84,83,82,29.95,29.83,6,0,6,0.00
2013-12-22,28.6,24.8,22.1,24.9,21.2,18.3,87,86,84,30.09,29.88,8,0,8,0.00
2013-12-23,29.8,26.6,23.0,26.7,23.2,19.4,88,87,86,30.11,29.96,0,0,0,0.00
2013-12-24,29.3,20.0,8.6,25.9,16.1,4.2,87,84,82,30.17,30.04,0,0,0,0.00
2013-12-25,13.8,8.5,2.7,8.8,3.7,-2.4,82,80,78,30.52,30.17,0,0,0,0.00
2013-12-26,19.6,14.3,10.6,14.8,9.9,5.9,83,82,81,30.50,30.07,0,0,0,0.00
2013-12-27,27.9,19.6,12.9,22.9,15.2,8.7,84,83,80,30.17,30.11,0,0,0,0.00
2013-12-28,32.2,24.6,16.9,26.8,20.3,12.6,86,83,80,30.14,29.91,0,0,0,0.00
2013-12-29,32.5,26.5,17.8,28.2,22.7,13.5,87,85,83,30.03,29.57,0,0,0,0.00
2013-12-30,27.7,15.8,0.5,22.1,10.7,-5.3,84,80,73,30.17,29.52,0,0,0,0.00
2013-12-31,8.6,2.1,-2.6,2.3,-3.0,-8.3,83,79,74,30.16,30.01,0,0,0,0.00
2014-1-1,14.5,5.0,-1.3,10.0,0.7,-5.2,85,82,77,30.40,30.08,0,0,0,0.00
2014-1-2,1.6,-5.9,-10.7,-3.7,-10.9,-15.0,83,78,75,30.43,29.99,0,0,0,0.00